Share

Tirana, Albania

Rr.Sami Frasheri (IQARKUIT2) Elev 404 ft | 41.32 °N, 19.82 °E | Change Station

Current weather conditions updated 20 seconds ago

Light Rain
Light Rain
47.4 °F
Feels Like 47 °F
N
1.0
Wind Variable Wind from SE
Gusts 2.0 mph
Sunrise 5:57 AM
Sunset 7:24 PM
Moon Waning Gibbous

Tomorrow is forecast to be Warmer than today. Light rain.

Pressure 29.71 in
Visibility 6.2 miles
Clouds Few 1500 ft
Scattered Clouds 3400 ft
Overcast 4100 ft
Windchill 47 °F
Dew Point 45 °F
Humidity 90%
Rainfall 0.13 in
Snow Depth Not available.
UV 0 out of 16
Pollen Not available.
Air Quality Not available.
Flu Activity Not available.
METAR LATI 181720Z 13004KT 070V150 9999 -RA FEW015 SCT034 OVC041 10/08 Q1006 NOSIG

More Conditions Fewer Conditions

Pressure 29.71 in
Visibility 6.2 miles
Clouds Few 1500 ft
Scattered Clouds 3400 ft
Overcast 4100 ft
Windchill 47 °F
Dew Point 45 °F
Humidity 90%
Rainfall 0.13 in
Snow Depth Not available.
UV 0 out of 16
Pollen Not available.
Air Quality Not available.
Flu Activity Not available.
METAR LATI 181720Z 13004KT 070V150 9999 -RA FEW015 SCT034 OVC041 10/08 Q1006 NOSIG

More Conditions Fewer Conditions

10-Day Weather Forecast

Almanac

Astronomy

Apr. 18, 2014 Rise Set
Actual Time 5:57 AM CEST 7:24 PM CEST
Civil Twilight 5:28 AM CEST 7:53 PM CEST
Nautical Twilight 4:53 AM CEST 8:27 PM CEST
Astronomical Twilight 4:16 AM CEST 9:04 PM CEST
Moon 10:53 PM CEST 8:01 AM CEST
Length of Visible Light 14h 24m
Length of Day
13h 26m
Tomorrow will be 2m 36s longer.
Waning Gibbous, 87% of the Moon is Illuminated
Today
Waning Gibbous
Apr 22
Last Quarter
Apr 29
New
May 6
First Quarter
May 14
Full

Today's Extremes

Country Highs Country Lows

Community

  • What's for Lunch?
    What's for Lunch?
  • SUNRISE THROUGH THE TREES.
    SUNRISE THROUGH THE TREES.
  • Dog Wood Blossoms
    Dog Wood Blossoms
  • Morning Light
    Morning Light
  • New Day
    New Day

WunderPhotos

Upload Photos

1,702,425 photos uploaded!

Nearby

Snow Depth

Not available.

Coastal Water Temperatures

Place Temperature
No Stations Reporting

Earthquake Activity

City Distance Mag. Time & Date
No recent earthquake activity has been reported nearby.
Minimum magnitude displayed is 2.5.

Nearby Weather Stations

Station Location Temp. Windchill Dew Point Humidity Wind Precip. Elev Updated Type
Rr.Sami Frasheri, Tirana 47.4 °F 47 °F 45 °F 90% SE  at  1.0 mph 0.01 in / hr 404 ft 7:27 PM CEST Rapid Fire
Ura e Tabakeve, Tirana 49.1 °F 49 °F 44 °F 84% WNW  at  0.0 mph 0.02 in / hr 364 ft 7:27 PM CEST Rapid Fire

Show More Stations Show Fewer Stations

What do you think?

We're not finished. Please let us know what you like, what you don't like, and what you are still missing.